Time;durP1;ratioP1;P1;durP2;ratioP2;P2;SDS_P1;SDS_P2;PMS_P1;PMS_P2;Temp;Humidity;BMP_temperature;BMP_pressure;BME280_temperature;BME280_humidity;BME280_pressure;Samples;Min_cycle;Max_cycle;Signal;HPM_P1;HPM_P2
2021/01/06 00:01:16;;;;;;;;;;;;;;;5.58;64.35;100516.94;4993554;28;19954;-75
2021/01/06 00:03:44;;;;;;;;;;;;;;;5.64;65.02;100517.09;4986384;28;19921;-77
2021/01/06 00:06:21;;;;;;;;;;;;;;;5.46;65.17;100520.94;4980878;28;19921;-73
2021/01/06 00:08:47;;;;;;;;;;;;;;;5.51;65.00;100519.34;4995205;28;19928;-75
2021/01/06 00:11:17;;;;;;;;;;;;;;;5.59;64.76;100517.81;5013549;28;19928;-75
2021/01/06 00:13:45;;;;;;;;;;;;;;;5.66;64.29;100519.69;5011103;28;19921;-75
2021/01/06 00:16:11;;;;;;;;;;;;;;;5.40;65.25;100510.41;5007942;28;19960;-75
2021/01/06 00:18:38;;;;;;;;;;;;;;;5.45;64.86;100504.50;5014395;28;20379;-75
2021/01/06 00:21:05;;;;;;;;;;;;;;;5.55;64.68;100498.72;5007087;28;19925;-77
2021/01/06 00:23:32;;;;;;;;;;;;;;;5.42;64.88;100494.03;5012414;28;20370;-76
2021/01/06 00:26:00;;;;;;;;;;;;;;;5.59;64.21;100489.31;5016915;28;19929;-76
2021/01/06 00:28:27;;;;;;;;;;;;;;;5.60;64.41;100494.53;4991020;28;19925;-76
2021/01/06 00:30:58;;;;;;;;;;;;;;;5.82;64.05;100500.22;5014045;28;19979;-77
2021/01/06 00:33:26;;;;;;;;;;;;;;;5.59;64.93;100502.25;5010378;28;20027;-76
2021/01/06 00:35:57;;;;;;;;;;;;;;;5.60;65.03;100504.03;5008273;28;20024;-77
2021/01/06 00:38:24;;;;;;;;;;;;;;;5.39;65.30;100504.34;5007816;28;19932;-78
2021/01/06 00:40:51;;;;;;;;;;;;;;;5.66;64.84;100497.25;5018748;28;19955;-75
2021/01/06 00:43:18;;;;;;;;;;;;;;;5.60;65.08;100491.94;5001004;28;19925;-79
2021/01/06 00:45:45;;;;;;;;;;;;;;;5.85;64.42;100498.59;5002341;28;19925;-77
2021/01/06 00:48:12;;;;;;;;;;;;;;;5.79;65.45;100497.56;5017747;28;19925;-78
2021/01/06 00:50:40;;;;;;;;;;;;;;;5.97;64.84;100492.84;5011307;28;19925;-78
2021/01/06 00:53:08;;;;;;;;;;;;;;;5.82;65.22;100488.16;5014322;28;19922;-77
2021/01/06 00:55:34;;;;;;;;;;;;;;;5.98;64.42;100485.13;4999523;28;19979;-78
2021/01/06 00:58:01;;;;;;;;;;;;;;;5.88;64.76;100477.97;5019374;28;20019;-77
2021/01/06 01:00:28;;;;;;;;;;;;;;;5.68;65.43;100485.22;5008111;28;20004;-76
2021/01/06 01:02:55;;;;;;;;;;;;;;;5.99;63.77;100473.03;4997687;28;19929;-76
2021/01/06 01:05:29;;;;;;;;;;;;;;;5.53;65.48;100483.94;5009861;28;20346;-78
2021/01/06 01:07:56;;;;;;;;;;;;;;;5.59;65.31;100478.94;4993694;28;19921;-76
2021/01/06 01:10:22;;;;;;;;;;;;;;;5.46;65.17;100482.94;4973855;28;19922;-77
2021/01/06 01:12:51;;;;;;;;;;;;;;;5.68;64.12;100477.44;4993164;28;19921;-77
2021/01/06 01:15:25;;;;;;;;;;;;;;;5.25;65.23;100478.06;4985718;28;20241;-76
2021/01/06 01:17:52;;;;;;;;;;;;;;;5.44;64.67;100478.53;4999513;28;19927;-78
2021/01/06 01:20:19;;;;;;;;;;;;;;;5.43;64.20;100480.25;4980716;28;20448;-76
2021/01/06 01:22:46;;;;;;;;;;;;;;;5.10;65.57;100488.03;4984102;28;19929;-76
2021/01/06 01:25:13;;;;;;;;;;;;;;;4.74;66.75;100482.72;4990151;28;20357;-78
2021/01/06 01:27:40;;;;;;;;;;;;;;;5.15;65.72;100477.78;4991033;28;20277;-76
2021/01/06 01:30:12;;;;;;;;;;;;;;;4.88;66.28;100471.88;4996212;28;19979;-78
2021/01/06 01:32:43;;;;;;;;;;;;;;;4.98;65.58;100466.97;4993881;28;20011;-76
2021/01/06 01:35:10;;;;;;;;;;;;;;;5.24;64.89;100475.44;4983312;28;20391;-76
2021/01/06 01:37:40;;;;;;;;;;;;;;;5.04;65.48;100480.06;4987767;28;20377;-77
2021/01/06 01:40:07;;;;;;;;;;;;;;;5.11;64.98;100478.53;4995547;28;19972;-76
2021/01/06 01:42:33;;;;;;;;;;;;;;;5.14;64.66;100474.31;4980747;28;20403;-76
2021/01/06 01:45:03;;;;;;;;;;;;;;;5.20;64.57;100471.88;4987852;28;19944;-76
2021/01/06 01:47:40;;;;;;;;;;;;;;;4.79;65.71;100475.06;4991345;28;20001;-78
2021/01/06 01:50:07;;;;;;;;;;;;;;;4.89;65.61;100477.09;4989735;28;19968;-76
2021/01/06 01:52:39;;;;;;;;;;;;;;;4.85;65.57;100472.63;4991305;28;19922;-76
2021/01/06 01:55:09;;;;;;;;;;;;;;;4.81;65.88;100471.69;4995349;28;19922;-77
2021/01/06 01:57:39;;;;;;;;;;;;;;;4.80;65.88;100482.88;4978500;28;20367;-77
2021/01/06 02:00:05;;;;;;;;;;;;;;;4.96;64.97;100481.59;4973687;28;19926;-77
2021/01/06 02:02:53;;;;;;;;;;;;;;;4.74;65.40;100467.19;4973851;28;19929;-75
2021/01/06 02:05:24;;;;;;;;;;;;;;;4.44;66.58;100474.06;5009932;28;19972;-76
2021/01/06 02:08:16;;;;;;;;;;;;;;;4.90;65.18;100470.16;5030899;28;19929;-76
2021/01/06 02:10:51;;;;;;;;;;;;;;;4.20;67.93;100473.31;5022982;28;19957;-76
2021/01/06 02:13:33;;;;;;;;;;;;;;;4.65;66.36;100476.41;5036451;28;19920;-78
2021/01/06 02:16:10;;;;;;;;;;;;;;;4.87;65.87;100480.44;5021610;28;19926;-76
2021/01/06 02:18:36;;;;;;;;;;;;;;;4.94;65.40;100475.47;5019249;28;19920;-77
2021/01/06 02:21:08;;;;;;;;;;;;;;;4.65;65.82;100484.16;5028816;28;19939;-75
2021/01/06 02:23:35;;;;;;;;;;;;;;;4.79;65.81;100485.44;5034054;28;20272;-75
2021/01/06 02:26:02;;;;;;;;;;;;;;;4.55;66.41;100480.44;5035098;28;19929;-76
2021/01/06 02:28:29;;;;;;;;;;;;;;;4.90;65.18;100485.72;5023525;28;19928;-75
2021/01/06 02:30:55;;;;;;;;;;;;;;;4.74;65.62;100481.84;5018883;28;19924;-77
2021/01/06 02:33:22;;;;;;;;;;;;;;;4.47;66.96;100479.31;5004937;28;19983;-78
2021/01/06 02:35:50;;;;;;;;;;;;;;;4.80;65.74;100484.56;5021751;28;19920;-76
2021/01/06 02:38:16;;;;;;;;;;;;;;;4.68;66.01;100481.66;5033430;28;20030;-76
2021/01/06 02:40:43;;;;;;;;;;;;;;;4.75;65.89;100481.84;5028084;28;19947;-76
2021/01/06 02:43:11;;;;;;;;;;;;;;;4.60;66.03;100478.84;5016217;28;20301;-75
2021/01/06 02:45:37;;;;;;;;;;;;;;;4.60;66.04;100475.38;5036275;28;20389;-76
2021/01/06 02:48:04;;;;;;;;;;;;;;;4.49;66.36;100475.06;5018079;28;19928;-78
2021/01/06 02:50:31;;;;;;;;;;;;;;;4.68;65.26;100476.47;5032352;28;19921;-76
2021/01/06 02:53:02;;;;;;;;;;;;;;;4.80;64.88;100477.69;5028487;28;20390;-76
2021/01/06 02:55:30;;;;;;;;;;;;;;;4.92;64.16;100479.75;5019752;28;19972;-76
2021/01/06 02:57:57;;;;;;;;;;;;;;;4.64;64.83;100478.09;5036406;28;20340;-76
2021/01/06 03:00:25;;;;;;;;;;;;;;;4.70;64.36;100473.09;5015383;28;19924;-76
2021/01/06 03:02:52;;;;;;;;;;;;;;;4.65;65.07;100476.41;5035006;28;19925;-75
2021/01/06 03:05:27;;;;;;;;;;;;;;;4.36;65.59;100476.41;5011125;28;19921;-75
2021/01/06 03:07:53;;;;;;;;;;;;;;;4.55;65.26;100483.03;5024174;28;20363;-77
2021/01/06 03:10:20;;;;;;;;;;;;;;;4.41;65.66;100476.56;5032351;28;19928;-76
2021/01/06 03:12:48;;;;;;;;;;;;;;;4.61;64.95;100479.69;5020531;28;19921;-76
2021/01/06 03:15:17;;;;;;;;;;;;;;;4.92;63.94;100472.00;5033416;28;19924;-76
2021/01/06 03:17:43;;;;;;;;;;;;;;;4.75;64.53;100473.22;5009876;28;19921;-75
2021/01/06 03:20:12;;;;;;;;;;;;;;;4.73;64.54;100465.44;5014759;28;19972;-76
2021/01/06 03:22:40;;;;;;;;;;;;;;;4.13;65.81;100463.59;5016714;28;20008;-76
2021/01/06 03:25:11;;;;;;;;;;;;;;;4.51;65.43;100459.59;5037191;28;19954;-75
2021/01/06 03:27:40;;;;;;;;;;;;;;;4.62;64.86;100465.94;5017272;28;19939;-75
2021/01/06 03:30:09;;;;;;;;;;;;;;;4.38;66.13;100463.53;5029193;28;19937;-76
2021/01/06 03:32:49;;;;;;;;;;;;;;;4.30;66.24;100462.44;5035860;28;19933;-77
2021/01/06 03:35:33;;;;;;;;;;;;;;;4.56;65.29;100460.56;5021086;28;20287;-76
2021/01/06 03:38:08;;;;;;;;;;;;;;;4.70;64.87;100451.53;5035941;28;19978;-77
2021/01/06 03:40:38;;;;;;;;;;;;;;;4.61;65.14;100452.13;5034394;28;19929;-75
2021/01/06 03:43:06;;;;;;;;;;;;;;;4.37;65.64;100454.88;5034110;28;19925;-75
2021/01/06 03:45:34;;;;;;;;;;;;;;;4.20;66.12;100450.94;5012532;28;19960;-77
2021/01/06 03:48:21;;;;;;;;;;;;;;;4.51;65.91;100452.69;5019841;28;19960;-76
2021/01/06 03:50:51;;;;;;;;;;;;;;;4.19;65.90;100448.28;5017057;28;20824;-75
2021/01/06 03:53:22;;;;;;;;;;;;;;;4.34;66.00;100449.63;5003254;28;20594;-76
2021/01/06 03:55:53;;;;;;;;;;;;;;;4.03;67.63;100446.09;5016653;28;19991;-75
2021/01/06 03:58:40;;;;;;;;;;;;;;;4.49;65.98;100443.16;5014737;28;19932;-75
2021/01/06 04:01:13;;;;;;;;;;;;;;;4.68;65.04;100435.94;5007152;28;20020;-77
2021/01/06 04:03:49;;;;;;;;;;;;;;;4.34;66.43;100441.88;5035386;28;19931;-77
2021/01/06 04:06:17;;;;;;;;;;;;;;;3.98;67.51;100433.00;5018621;28;19963;-76
2021/01/06 04:08:46;;;;;;;;;;;;;;;4.28;67.18;100431.34;5034769;28;20106;-77
2021/01/06 04:11:16;;;;;;;;;;;;;;;4.32;66.64;100432.28;5031261;28;19929;-78
2021/01/06 04:13:43;;;;;;;;;;;;;;;4.13;67.77;100433.47;5019611;28;20402;-76
2021/01/06 04:16:13;;;;;;;;;;;;;;;4.45;66.98;100430.97;5023880;28;19931;-76
2021/01/06 04:18:43;;;;;;;;;;;;;;;4.64;66.04;100428.94;5012664;28;19982;-76
2021/01/06 04:21:10;;;;;;;;;;;;;;;4.46;66.42;100428.38;5016105;28;19944;-76
2021/01/06 04:23:36;;;;;;;;;;;;;;;4.43;66.71;100425.72;5013176;28;19956;-75
2021/01/06 04:26:03;;;;;;;;;;;;;;;4.78;65.86;100425.00;5032063;28;21206;-75
2021/01/06 04:28:32;;;;;;;;;;;;;;;4.36;66.70;100413.47;5030464;28;19929;-76
2021/01/06 04:30:58;;;;;;;;;;;;;;;4.58;66.17;100410.66;5015067;28;19920;-76
2021/01/06 04:33:26;;;;;;;;;;;;;;;4.77;66.22;100417.19;5017857;28;20007;-75
2021/01/06 04:35:54;;;;;;;;;;;;;;;5.01;65.74;100414.38;5023478;28;20425;-76
2021/01/06 04:38:25;;;;;;;;;;;;;;;5.09;65.65;100410.28;5028426;28;20051;-76
2021/01/06 04:41:11;;;;;;;;;;;;;;;5.19;65.53;100405.38;5023769;28;19924;-78
2021/01/06 04:43:42;;;;;;;;;;;;;;;5.01;65.46;100409.22;5029834;28;20299;-75
2021/01/06 04:46:15;;;;;;;;;;;;;;;5.55;63.86;100405.41;5017335;28;19979;-76
2021/01/06 04:48:44;;;;;;;;;;;;;;;5.35;64.55;100409.22;5014589;28;19927;-75
2021/01/06 04:51:17;;;;;;;;;;;;;;;4.71;66.11;100411.84;5018154;28;19921;-75
2021/01/06 04:54:02;;;;;;;;;;;;;;;5.17;64.57;100409.66;5013069;28;19921;-75
2021/01/06 04:56:47;;;;;;;;;;;;;;;5.26;64.09;100396.06;5034165;28;20287;-75
2021/01/06 04:59:13;;;;;;;;;;;;;;;5.01;64.75;100398.84;5002425;28;20074;-76
2021/01/06 05:01:49;;;;;;;;;;;;;;;5.07;64.83;100399.91;5019178;28;19960;-75
2021/01/06 05:04:24;;;;;;;;;;;;;;;4.95;64.82;100396.09;4994660;28;20352;-75
2021/01/06 05:07:04;;;;;;;;;;;;;;;4.99;64.92;100393.63;5018583;28;19964;-75
2021/01/06 05:09:56;;;;;;;;;;;;;;;5.07;64.63;100407.66;5027831;28;19975;-75
2021/01/06 05:12:26;;;;;;;;;;;;;;;4.95;65.10;100396.97;5010970;28;20000;-76
2021/01/06 05:14:56;;;;;;;;;;;;;;;5.14;64.41;100386.25;5002664;28;19943;-76
2021/01/06 05:17:23;;;;;;;;;;;;;;;5.14;64.55;100396.59;5006143;28;19924;-76
2021/01/06 05:19:50;;;;;;;;;;;;;;;4.97;64.64;100397.91;5012751;28;19925;-75
2021/01/06 05:22:17;;;;;;;;;;;;;;;4.66;65.79;100391.03;5013435;28;19928;-75
2021/01/06 05:24:45;;;;;;;;;;;;;;;4.79;65.66;100397.44;5032585;28;19921;-76
2021/01/06 05:27:12;;;;;;;;;;;;;;;4.60;66.61;100393.47;5016933;28;19950;-76
2021/01/06 05:29:38;;;;;;;;;;;;;;;5.11;65.20;100390.50;5011348;28;19983;-75
2021/01/06 05:32:05;;;;;;;;;;;;;;;5.25;64.51;100387.41;5039136;28;19969;-75
2021/01/06 05:34:34;;;;;;;;;;;;;;;5.14;64.03;100383.66;5034555;28;19970;-75
2021/01/06 05:37:00;;;;;;;;;;;;;;;5.25;64.74;100387.41;5038184;28;19972;-76
2021/01/06 05:39:28;;;;;;;;;;;;;;;5.56;63.64;100380.38;5010668;28;19955;-76
2021/01/06 05:41:57;;;;;;;;;;;;;;;5.11;64.59;100380.13;4997285;28;20376;-76
2021/01/06 05:44:24;;;;;;;;;;;;;;;5.56;63.43;100381.22;5023987;28;19921;-75
2021/01/06 05:46:50;;;;;;;;;;;;;;;5.37;63.95;100378.19;4995879;28;19936;-76
2021/01/06 05:49:21;;;;;;;;;;;;;;;5.00;64.42;100382.44;5031414;28;20058;-75
2021/01/06 05:51:55;;;;;;;;;;;;;;;4.90;65.85;100387.31;5015327;28;19947;-76
2021/01/06 05:54:41;;;;;;;;;;;;;;;5.33;63.97;100384.09;4999109;28;19925;-77
2021/01/06 05:57:10;;;;;;;;;;;;;;;5.53;64.01;100380.28;5031978;28;19932;-76
2021/01/06 05:59:37;;;;;;;;;;;;;;;5.16;65.24;100394.06;5016781;28;19929;-75
2021/01/06 06:02:15;;;;;;;;;;;;;;;5.08;65.17;100391.31;5018562;28;19936;-76
2021/01/06 06:04:45;;;;;;;;;;;;;;;5.72;63.84;100401.50;5016794;28;19971;-76
2021/01/06 06:07:11;;;;;;;;;;;;;;;5.59;63.75;100390.81;5029838;28;19956;-75
2021/01/06 06:10:00;;;;;;;;;;;;;;;5.68;63.85;100391.91;5022090;28;19928;-76
2021/01/06 06:12:26;;;;;;;;;;;;;;;5.50;64.52;100396.66;5004623;28;20395;-76
2021/01/06 06:15:13;;;;;;;;;;;;;;;5.55;64.37;100397.66;5016971;28;19982;-76
2021/01/06 06:17:59;;;;;;;;;;;;;;;5.22;65.28;100395.13;5010892;28;19932;-76
2021/01/06 06:20:39;;;;;;;;;;;;;;;5.61;64.26;100396.91;5029542;28;19929;-76
2021/01/06 06:23:28;;;;;;;;;;;;;;;5.79;63.64;100396.47;5031766;28;19930;-76
2021/01/06 06:26:06;;;;;;;;;;;;;;;5.66;63.70;100390.97;5017943;28;19975;-76
2021/01/06 06:28:39;;;;;;;;;;;;;;;5.50;64.08;100393.19;5033045;28;20011;-76
2021/01/06 06:31:23;;;;;;;;;;;;;;;5.57;64.05;100392.47;5015249;28;19927;-77
2021/01/06 06:33:54;;;;;;;;;;;;;;;5.46;64.58;100400.03;5032151;28;19924;-78
2021/01/06 06:36:22;;;;;;;;;;;;;;;5.26;64.59;100402.13;5017782;28;19973;-77
2021/01/06 06:38:49;;;;;;;;;;;;;;;5.00;65.41;100402.28;5035342;28;19927;-77
2021/01/06 06:41:22;;;;;;;;;;;;;;;5.53;64.08;100403.63;5033360;28;19960;-77
2021/01/06 06:43:50;;;;;;;;;;;;;;;5.68;64.07;100401.38;5027526;28;19999;-77
2021/01/06 06:46:21;;;;;;;;;;;;;;;5.68;63.64;100402.28;5004422;28;19939;-77
2021/01/06 06:48:58;;;;;;;;;;;;;;;5.36;65.22;100399.75;5022268;28;20001;-77
2021/01/06 06:51:30;;;;;;;;;;;;;;;5.33;64.93;100403.13;5019175;28;20012;-78
2021/01/06 06:54:11;;;;;;;;;;;;;;;4.98;65.96;100406.56;5037708;28;19920;-79
2021/01/06 06:56:46;;;;;;;;;;;;;;;5.39;65.09;100407.59;5035462;28;19987;-77
2021/01/06 06:59:35;;;;;;;;;;;;;;;5.58;64.16;100412.38;5018520;28;19929;-79
2021/01/06 07:02:03;;;;;;;;;;;;;;;5.64;64.04;100409.94;5035469;28;19925;-77
2021/01/06 07:04:51;;;;;;;;;;;;;;;5.67;63.79;100410.00;4978487;28;19925;-78
2021/01/06 07:07:40;;;;;;;;;;;;;;;5.76;63.94;100414.53;5018243;28;20130;-77
2021/01/06 07:10:15;;;;;;;;;;;;;;;5.43;64.51;100414.59;5017058;28;20660;-78
2021/01/06 07:12:41;;;;;;;;;;;;;;;5.42;64.10;100415.47;4987429;28;20323;-77
2021/01/06 07:15:19;;;;;;;;;;;;;;;5.57;64.41;100415.81;5001186;28;19925;-77
2021/01/06 07:17:46;;;;;;;;;;;;;;;5.91;63.50;100422.69;5009608;28;19929;-79
2021/01/06 07:20:15;;;;;;;;;;;;;;;5.60;64.18;100413.31;5018908;28;20024;-79
2021/01/06 07:22:53;;;;;;;;;;;;;;;5.00;65.82;100420.41;5022258;28;19983;-79
2021/01/06 07:25:28;;;;;;;;;;;;;;;5.86;63.75;100419.06;5035338;28;19921;-77
2021/01/06 07:27:57;;;;;;;;;;;;;;;6.05;62.69;100416.97;5034542;28;19928;-78
2021/01/06 07:30:33;;;;;;;;;;;;;;;5.63;64.32;100421.16;4998135;28;20006;-78
2021/01/06 07:33:09;;;;;;;;;;;;;;;5.59;64.45;100421.91;5022953;28;19960;-78
2021/01/06 07:35:39;;;;;;;;;;;;;;;5.33;65.29;100418.66;5022703;28;19927;-77
2021/01/06 07:38:07;;;;;;;;;;;;;;;5.66;63.75;100414.31;5017747;28;20024;-77
2021/01/06 07:40:39;;;;;;;;;;;;;;;5.87;63.83;100421.75;5007648;28;19968;-77
2021/01/06 07:43:06;;;;;;;;;;;;;;;5.92;63.45;100424.44;5028755;28;20050;-78
2021/01/06 07:45:36;;;;;;;;;;;;;;;5.64;64.03;100421.19;5017555;28;19940;-77
2021/01/06 07:48:10;;;;;;;;;;;;;;;5.81;63.41;100431.94;5035990;28;19975;-77
2021/01/06 07:50:38;;;;;;;;;;;;;;;5.81;63.83;100420.69;5020670;28;19975;-78
2021/01/06 07:53:07;;;;;;;;;;;;;;;5.67;63.97;100426.44;5018209;28;19924;-77
2021/01/06 07:56:03;;;;;;;;;;;;;;;5.58;64.10;100428.81;5033191;28;20364;-77
2021/01/06 07:58:34;;;;;;;;;;;;;;;5.69;64.00;100435.13;4939357;28;20024;-77
2021/01/06 08:01:03;;;;;;;;;;;;;;;5.56;63.88;100434.81;4951149;28;20243;-77
2021/01/06 08:03:32;;;;;;;;;;;;;;;5.88;63.65;100425.22;4923632;28;19926;-76
2021/01/06 08:06:00;;;;;;;;;;;;;;;5.35;64.88;100435.16;4947028;28;19928;-77
2021/01/06 08:08:30;;;;;;;;;;;;;;;5.77;63.96;100424.94;4948296;28;19922;-77
2021/01/06 08:11:04;;;;;;;;;;;;;;;5.48;64.77;100428.53;4944882;28;19957;-76
2021/01/06 08:13:34;;;;;;;;;;;;;;;5.51;64.73;100428.63;4931819;28;19922;-76
2021/01/06 08:16:06;;;;;;;;;;;;;;;5.80;63.92;100427.63;4944634;28;20354;-79
2021/01/06 08:18:35;;;;;;;;;;;;;;;6.00;63.25;100431.56;4960767;28;20050;-79
2021/01/06 08:21:20;;;;;;;;;;;;;;;6.11;62.90;100429.22;4926325;28;20183;-77
2021/01/06 08:24:17;;;;;;;;;;;;;;;5.92;63.28;100432.22;4925846;28;19930;-81
2021/01/06 08:26:49;;;;;;;;;;;;;;;5.79;64.19;100435.34;4953195;28;19930;-80
2021/01/06 08:29:23;;;;;;;;;;;;;;;5.89;63.92;100443.41;4932000;28;19984;-79
2021/01/06 08:31:51;;;;;;;;;;;;;;;6.05;63.55;100445.50;4959973;28;19997;-79
2021/01/06 08:34:26;;;;;;;;;;;;;;;6.09;63.20;100441.28;4954201;28;20409;-79
2021/01/06 08:36:54;;;;;;;;;;;;;;;6.27;62.79;100448.59;5028879;28;20043;-78
2021/01/06 08:39:25;;;;;;;;;;;;;;;5.94;63.79;100439.22;5015125;28;20316;-77
2021/01/06 08:41:55;;;;;;;;;;;;;;;5.94;63.49;100449.59;5021343;28;19929;-79
2021/01/06 08:44:40;;;;;;;;;;;;;;;5.96;63.50;100453.06;5022168;28;20339;-80
2021/01/06 08:47:09;;;;;;;;;;;;;;;6.14;63.23;100452.59;5019339;28;20387;-82
2021/01/06 08:49:38;;;;;;;;;;;;;;;5.15;65.95;100462.25;5002358;28;19955;-80
2021/01/06 08:52:17;;;;;;;;;;;;;;;5.93;64.25;100458.19;5021784;28;19925;-78
2021/01/06 08:55:04;;;;;;;;;;;;;;;5.91;64.11;100452.09;5017635;28;19928;-80
2021/01/06 08:57:33;;;;;;;;;;;;;;;5.91;64.11;100459.88;5002667;28;20039;-82
2021/01/06 09:00:14;;;;;;;;;;;;;;;6.41;62.78;100468.81;5027820;28;19951;-78
2021/01/06 09:02:45;;;;;;;;;;;;;;;6.19;63.19;100458.78;5037497;28;19924;-77
2021/01/06 09:05:31;;;;;;;;;;;;;;;5.94;64.20;100464.28;5029612;28;19966;-79
2021/01/06 09:08:00;;;;;;;;;;;;;;;6.09;63.64;100468.06;4984844;28;20378;-79
2021/01/06 09:10:31;;;;;;;;;;;;;;;6.36;62.50;100460.03;4991128;28;19925;-81
2021/01/06 09:13:20;;;;;;;;;;;;;;;5.96;64.09;100473.81;5001303;28;20211;-79
2021/01/06 09:15:56;;;;;;;;;;;;;;;5.83;63.73;100465.69;4992889;28;19928;-81
2021/01/06 09:18:30;;;;;;;;;;;;;;;6.17;63.19;100467.38;4992682;28;19929;-79
2021/01/06 09:21:04;;;;;;;;;;;;;;;6.18;62.91;100461.38;4987053;28;19980;-79
2021/01/06 09:23:30;;;;;;;;;;;;;;;6.23;62.68;100467.53;4963346;28;20392;-79
2021/01/06 09:25:58;;;;;;;;;;;;;;;6.37;62.94;100469.59;4987578;28;19921;-82
2021/01/06 09:28:25;;;;;;;;;;;;;;;6.65;61.98;100465.84;4990205;28;19955;-79
2021/01/06 09:30:51;;;;;;;;;;;;;;;6.49;62.27;100459.44;4992157;28;19921;-78
2021/01/06 09:33:21;;;;;;;;;;;;;;;6.56;61.72;100466.53;4982123;28;19973;-78
2021/01/06 09:35:48;;;;;;;;;;;;;;;6.82;61.63;100468.75;4994988;28;20047;-81
2021/01/06 09:38:15;;;;;;;;;;;;;;;6.52;62.29;100469.88;5000710;28;19925;-80
2021/01/06 09:40:42;;;;;;;;;;;;;;;6.35;62.45;100471.25;4980512;28;20033;-79
2021/01/06 09:43:19;;;;;;;;;;;;;;;6.62;62.00;100467.50;5000457;28;19961;-79
2021/01/06 09:45:46;;;;;;;;;;;;;;;6.44;62.10;100466.25;4998891;28;19925;-78
2021/01/06 09:48:13;;;;;;;;;;;;;;;6.57;61.94;100468.25;5008611;28;19992;-80
2021/01/06 09:50:45;;;;;;;;;;;;;;;6.45;62.55;100468.03;4981641;28;19929;-80
2021/01/06 09:53:14;;;;;;;;;;;;;;;6.68;61.52;100471.09;4991253;28;19971;-78
2021/01/06 09:55:45;;;;;;;;;;;;;;;6.45;62.00;100469.75;4992637;28;19928;-77
2021/01/06 09:58:18;;;;;;;;;;;;;;;6.39;62.51;100477.38;5018200;28;19976;-76
2021/01/06 10:00:50;;;;;;;;;;;;;;;6.55;62.25;100476.88;5017475;28;19921;-76
2021/01/06 10:03:17;;;;;;;;;;;;;;;6.57;62.59;100468.25;5015953;28;19922;-77
2021/01/06 10:05:47;;;;;;;;;;;;;;;6.68;61.91;100471.09;5025994;28;20020;-73
2021/01/06 10:08:35;;;;;;;;;;;;;;;6.92;61.08;100473.31;5003086;28;20304;-75
2021/01/06 10:11:25;;;;;;;;;;;;;;;6.72;61.51;100467.72;4989226;28;19925;-76
2021/01/06 10:13:52;;;;;;;;;;;;;;;7.09;60.53;100471.94;5017966;28;19936;-80
2021/01/06 10:16:23;;;;;;;;;;;;;;;6.98;60.85;100481.22;5011926;28;19929;-76
2021/01/06 10:19:28;;;;;;;;;;;;;;;6.83;60.97;100473.13;5015134;28;19929;-76
2021/01/06 10:21:55;;;;;;;;;;;;;;;7.31;59.95;100470.59;4913882;29;20339;-76
2021/01/06 10:24:46;;;;;;;;;;;;;;;6.75;61.76;100470.38;4925691;28;20140;-76
2021/01/06 10:27:15;;;;;;;;;;;;;;;7.27;60.14;100469.66;4942819;28;19930;-79
2021/01/06 10:29:46;;;;;;;;;;;;;;;7.43;59.44;100470.81;4934642;28;19926;-76
2021/01/06 10:32:28;;;;;;;;;;;;;;;7.15;59.74;100468.53;4915364;29;19922;-78
2021/01/06 10:35:07;;;;;;;;;;;;;;;7.24;60.16;100460.94;4944981;28;20031;-80
2021/01/06 10:37:34;;;;;;;;;;;;;;;7.32;59.58;100468.03;4935897;28;19923;-79
2021/01/06 10:40:25;;;;;;;;;;;;;;;7.11;60.31;100464.13;4947645;28;19993;-78
2021/01/06 10:42:52;;;;;;;;;;;;;;;7.24;60.43;100460.94;4924651;28;19923;-77
2021/01/06 10:45:24;;;;;;;;;;;;;;;7.35;60.01;100455.06;4935630;28;19969;-78
2021/01/06 10:47:52;;;;;;;;;;;;;;;7.62;59.01;100459.00;4935786;28;19930;-79
2021/01/06 10:50:26;;;;;;;;;;;;;;;7.36;59.61;100445.56;4937767;28;20020;-79
2021/01/06 10:52:53;;;;;;;;;;;;;;;7.60;59.38;100450.28;4986217;28;19956;-78
2021/01/06 10:55:32;;;;;;;;;;;;;;;7.71;58.72;100456.53;5016315;28;20007;-77
2021/01/06 10:58:14;;;;;;;;;;;;;;;7.22;59.70;100442.72;5014485;28;20015;-76
2021/01/06 11:00:50;;;;;;;;;;;;;;;7.37;60.09;100444.72;4995836;28;20011;-77
2021/01/06 11:03:37;;;;;;;;;;;;;;;7.53;59.63;100441.50;5014476;28;19921;-78
2021/01/06 11:06:05;;;;;;;;;;;;;;;7.55;59.45;100445.00;4991926;28;19932;-77
2021/01/06 11:08:32;;;;;;;;;;;;;;;8.70;57.23;100435.41;4983551;28;19957;-76
2021/01/06 11:11:06;;;;;;;;;;;;;;;8.64;55.04;100436.22;4971693;28;19944;-75
2021/01/06 11:13:52;;;;;;;;;;;;;;;10.21;53.15;100427.25;4967639;28;20446;-75
2021/01/06 11:16:22;;;;;;;;;;;;;;;12.71;46.50;100422.19;4981108;28;19921;-75
2021/01/06 11:18:50;;;;;;;;;;;;;;;14.84;41.91;100418.63;4971457;28;19960;-75
2021/01/06 11:21:18;;;;;;;;;;;;;;;15.78;39.50;100419.00;4943245;28;20364;-77
2021/01/06 11:23:51;;;;;;;;;;;;;;;16.72;37.98;100411.94;4988535;28;19944;-76
2021/01/06 11:26:43;;;;;;;;;;;;;;;17.66;34.77;100415.09;4969455;28;20445;-75
2021/01/06 11:29:10;;;;;;;;;;;;;;;18.47;33.43;100417.31;4899485;29;19923;-77
2021/01/06 11:31:38;;;;;;;;;;;;;;;18.85;32.93;100408.31;4898843;29;19946;-76
2021/01/06 11:34:07;;;;;;;;;;;;;;;18.17;31.89;100402.31;4876317;29;19954;-78
2021/01/06 11:36:41;;;;;;;;;;;;;;;18.23;32.65;100396.84;4908051;29;19953;-77
2021/01/06 11:39:10;;;;;;;;;;;;;;;19.09;32.53;100402.25;4909443;29;19931;-76
2021/01/06 11:41:46;;;;;;;;;;;;;;;18.78;33.10;100396.19;4910778;29;20488;-76
2021/01/06 11:44:30;;;;;;;;;;;;;;;17.50;35.14;100392.56;4924453;28;20024;-78
2021/01/06 11:47:02;;;;;;;;;;;;;;;17.88;32.49;100387.22;4945643;28;19962;-78
2021/01/06 11:49:30;;;;;;;;;;;;;;;15.74;36.22;100380.41;4920425;28;19922;-77
2021/01/06 11:52:20;;;;;;;;;;;;;;;13.75;40.80;100376.03;4932289;29;20422;-76
2021/01/06 11:54:49;;;;;;;;;;;;;;;14.16;41.27;100370.34;4915993;29;19923;-78
2021/01/06 11:57:22;;;;;;;;;;;;;;;14.39;39.35;100370.97;4926718;28;19922;-79
2021/01/06 12:00:07;;;;;;;;;;;;;;;15.86;38.24;100367.03;4931128;28;19926;-77
2021/01/06 12:02:37;;;;;;;;;;;;;;;16.64;36.65;100361.13;4925272;28;20378;-79
2021/01/06 12:05:09;;;;;;;;;;;;;;;16.56;36.55;100362.09;4947854;28;20002;-77
2021/01/06 12:07:51;;;;;;;;;;;;;;;15.45;37.88;100359.81;4993186;28;19929;-79
2021/01/06 12:10:22;;;;;;;;;;;;;;;17.28;35.14;100353.47;4987730;28;20371;-80
2021/01/06 12:12:52;;;;;;;;;;;;;;;16.21;36.15;100340.00;4983098;28;19921;-80
2021/01/06 12:15:22;;;;;;;;;;;;;;;14.58;40.25;100340.06;4991517;28;19945;-77
2021/01/06 12:17:52;;;;;;;;;;;;;;;15.89;37.65;100337.97;4965287;28;19925;-78
2021/01/06 12:20:30;;;;;;;;;;;;;;;16.55;35.61;100338.38;4970102;28;20008;-77
2021/01/06 12:23:15;;;;;;;;;;;;;;;14.67;38.33;100324.19;4960339;28;20266;-76
2021/01/06 12:25:54;;;;;;;;;;;;;;;14.25;40.00;100328.19;4951118;28;19973;-78
2021/01/06 12:28:50;;;;;;;;;;;;;;;12.79;43.04;100322.53;4956415;28;19936;-77
2021/01/06 12:31:20;;;;;;;;;;;;;;;11.58;47.02;100322.09;4861119;29;19927;-76
2021/01/06 12:34:12;;;;;;;;;;;;;;;10.74;47.71;100323.81;4872368;29;19963;-76
2021/01/06 12:36:58;;;;;;;;;;;;;;;10.23;50.69;100311.47;4875614;29;19931;-79
2021/01/06 12:39:27;;;;;;;;;;;;;;;9.98;51.10;100312.19;4869010;29;19923;-76
2021/01/06 12:41:58;;;;;;;;;;;;;;;9.09;52.82;100304.66;4869675;29;19931;-78
2021/01/06 12:44:27;;;;;;;;;;;;;;;8.85;55.01;100297.50;4868117;29;19963;-75
2021/01/06 12:47:00;;;;;;;;;;;;;;;8.85;54.95;100299.25;4885508;29;20002;-78
2021/01/06 12:49:59;;;;;;;;;;;;;;;8.71;55.30;100293.91;4887997;29;19938;-80
2021/01/06 12:52:37;;;;;;;;;;;;;;;8.70;55.25;100292.16;4811753;29;20351;-81
2021/01/06 12:55:04;;;;;;;;;;;;;;;8.40;55.62;100295.31;4802494;29;19932;-80
2021/01/06 12:57:43;;;;;;;;;;;;;;;8.26;56.61;100287.31;4818985;29;20098;-77
2021/01/06 13:00:22;;;;;;;;;;;;;;;8.69;55.97;100293.00;4818247;29;20350;-81
2021/01/06 13:02:49;;;;;;;;;;;;;;;8.75;55.77;100280.94;4810324;29;20416;-78
2021/01/06 13:05:28;;;;;;;;;;;;;;;8.54;56.44;100287.63;4839879;29;20146;-79
2021/01/06 13:07:58;;;;;;;;;;;;;;;8.19;57.22;100289.84;4880529;29;20309;-82
2021/01/06 13:10:39;;;;;;;;;;;;;;;8.48;56.60;100285.88;4923566;28;19946;-79
2021/01/06 13:13:24;;;;;;;;;;;;;;;8.32;56.64;100287.44;4934561;28;19922;-80